createdAt,value
2017-04-01T00:00:13.687Z,1014.14
2017-04-01T00:01:36.125Z,1014.13
2017-04-01T00:02:57.645Z,1014.09
2017-04-01T00:04:20.117Z,1014.09
2017-04-01T00:05:42.078Z,1014.05
2017-04-01T00:07:04.147Z,1014.09
2017-04-01T00:08:26.748Z,1014.08
2017-04-01T00:09:49.215Z,1014.06
2017-04-01T00:11:11.365Z,1014.05
2017-04-01T00:12:33.646Z,1014.08
2017-04-01T00:13:55.165Z,1014.05
2017-04-01T00:15:17.322Z,1014.01
2017-04-01T00:16:39.469Z,1014.02
2017-04-01T00:18:02.275Z,1013.96
2017-04-01T00:19:24.206Z,1014
2017-04-01T00:20:45.779Z,1014
2017-04-01T00:22:07.644Z,1013.97
2017-04-01T00:23:30.217Z,1013.97
2017-04-01T00:24:52.040Z,1013.98
2017-04-01T00:26:14.207Z,1013.98
2017-04-01T00:27:36.021Z,1014.02
2017-04-01T00:28:58.474Z,1013.98
2017-04-01T00:30:20.619Z,1014
2017-04-01T00:31:41.822Z,1013.99
2017-04-01T00:33:03.657Z,1014
2017-04-01T00:34:26.226Z,1014
2017-04-01T00:35:48.383Z,1013.97
2017-04-01T00:37:10.227Z,1013.96
2017-04-01T00:38:32.365Z,1013.94
2017-04-01T00:39:54.796Z,1013.97
2017-04-01T00:41:17.353Z,1013.96
2017-04-01T00:42:39.893Z,1013.95
2017-04-01T00:44:01.721Z,1013.9
2017-04-01T00:45:24.506Z,1013.87
2017-04-01T00:46:46.034Z,1013.9
2017-04-01T00:48:07.313Z,1013.93
2017-04-01T00:49:29.803Z,1013.89
2017-04-01T00:50:51.906Z,1013.89
2017-04-01T00:52:13.519Z,1013.91
2017-04-01T00:53:36.085Z,1013.88
2017-04-01T00:54:57.915Z,1013.92
2017-04-01T00:56:20.004Z,1013.93
2017-04-01T00:57:42.132Z,1013.94
2017-04-01T00:59:03.946Z,1013.96
2017-04-01T01:00:25.883Z,1013.93
2017-04-01T01:01:48.385Z,1013.92
2017-04-01T01:03:10.527Z,1013.91
2017-04-01T01:04:32.792Z,1013.86
2017-04-01T01:05:54.646Z,1013.86
2017-04-01T01:07:16.437Z,1013.88
2017-04-01T01:08:38.944Z,1013.9
2017-04-01T01:10:01.158Z,1013.91
2017-04-01T01:11:23.315Z,1013.91
2017-04-01T01:12:45.722Z,1013.89
2017-04-01T01:14:07.545Z,1013.88
2017-04-01T01:15:29.073Z,1013.89
2017-04-01T01:16:50.898Z,1013.86
2017-04-01T01:18:13.356Z,1013.83
2017-04-01T01:19:35.514Z,1013.84
2017-04-01T01:20:56.846Z,1013.85
2017-04-01T01:22:18.986Z,1013.8
2017-04-01T01:23:40.739Z,1013.85
2017-04-01T01:25:03.010Z,1013.85
2017-04-01T01:26:24.855Z,1013.83
2017-04-01T01:27:46.375Z,1013.84
2017-04-01T01:29:08.148Z,1013.82
2017-04-01T01:30:30.293Z,1013.82
2017-04-01T01:31:52.139Z,1013.76
2017-04-01T01:33:14.285Z,1013.76
2017-04-01T01:34:36.206Z,1013.74
2017-04-01T01:35:57.814Z,1013.75
2017-04-01T01:37:19.928Z,1013.72
2017-04-01T01:38:41.575Z,1013.75
2017-04-01T01:40:04.025Z,1013.75
2017-04-01T01:41:25.992Z,1013.69
2017-04-01T01:42:48.441Z,1013.71
2017-04-01T01:44:10.917Z,1013.75
2017-04-01T01:45:32.714Z,1013.75
2017-04-01T01:46:54.864Z,1013.72
2017-04-01T01:48:16.986Z,1013.71
2017-04-01T01:49:38.527Z,1013.66
2017-04-01T01:51:00.686Z,1013.68
2017-04-01T01:52:22.504Z,1013.69
2017-04-01T01:53:44.702Z,1013.69
2017-04-01T01:55:06.194Z,1013.66
2017-04-01T01:56:28.586Z,1013.67
2017-04-01T01:57:50.170Z,1013.69
2017-04-01T01:59:12.332Z,1013.67
2017-04-01T02:00:34.204Z,1013.64
2017-04-01T02:01:56.374Z,1013.67
2017-04-01T02:03:18.538Z,1013.62
2017-04-01T02:04:40.400Z,1013.57
2017-04-01T02:06:02.552Z,1013.57
2017-04-01T02:07:24.057Z,1013.55
2017-04-01T02:08:45.974Z,1013.51
2017-04-01T02:10:08.084Z,1013.5
2017-04-01T02:11:30.215Z,1013.48
2017-04-01T02:12:51.967Z,1013.51
2017-04-01T02:14:13.796Z,1013.52
2017-04-01T02:15:34.996Z,1013.51
2017-04-01T02:16:57.147Z,1013.57
2017-04-01T02:18:19.555Z,1013.57
2017-04-01T02:19:41.066Z,1013.59
2017-04-01T02:21:03.506Z,1013.59
2017-04-01T02:22:25.025Z,1013.55
2017-04-01T02:23:47.746Z,1013.54
2017-04-01T02:25:08.949Z,1013.52
2017-04-01T02:26:31.084Z,1013.54
2017-04-01T02:27:52.260Z,1013.55
2017-04-01T02:29:15.004Z,1013.5
2017-04-01T02:30:36.836Z,1013.5
2017-04-01T02:31:59.025Z,1013.57
2017-04-01T02:33:20.632Z,1013.53
2017-04-01T02:34:43.143Z,1013.58
2017-04-01T02:36:04.638Z,1013.54
2017-04-01T02:37:26.462Z,1013.54
2017-04-01T02:38:48.274Z,1013.57
2017-04-01T02:40:10.983Z,1013.59
2017-04-01T02:41:33.553Z,1013.57
2017-04-01T02:42:55.362Z,1013.55
2017-04-01T02:44:17.843Z,1013.54
2017-04-01T02:45:40.030Z,1013.58
2017-04-01T02:47:01.854Z,1013.54
2017-04-01T02:48:23.980Z,1013.54
2017-04-01T02:49:45.887Z,1013.56
2017-04-01T02:51:09.565Z,1013.51
2017-04-01T02:52:31.691Z,1013.51
2017-04-01T02:53:53.564Z,1013.46
2017-04-01T02:55:14.750Z,1013.51
2017-04-01T02:56:36.815Z,1013.47
2017-04-01T02:57:58.014Z,1013.52
2017-04-01T02:59:19.516Z,1013.51
2017-04-01T03:00:41.966Z,1013.54
2017-04-01T03:02:04.095Z,1013.52
2017-04-01T03:03:25.936Z,1013.5
2017-04-01T03:04:47.852Z,1013.54
2017-04-01T03:06:10.005Z,1013.53
2017-04-01T03:07:31.771Z,1013.54
2017-04-01T03:08:53.956Z,1013.57
2017-04-01T03:10:16.104Z,1013.57
2017-04-01T03:11:37.921Z,1013.59
2017-04-01T03:13:00.155Z,1013.57
2017-04-01T03:14:21.709Z,1013.58
2017-04-01T03:15:43.543Z,1013.53
2017-04-01T03:17:04.724Z,1013.52
2017-04-01T03:18:26.168Z,1013.49
2017-04-01T03:19:48.591Z,1013.47
2017-04-01T03:21:10.826Z,1013.46
2017-04-01T03:22:32.421Z,1013.46
2017-04-01T03:23:54.556Z,1013.47
2017-04-01T03:25:16.382Z,1013.49
2017-04-01T03:26:37.585Z,1013.46
2017-04-01T03:28:00.064Z,1013.48
2017-04-01T03:29:21.926Z,1013.48
2017-04-01T03:30:43.734Z,1013.45
2017-04-01T03:32:04.945Z,1013.45
2017-04-01T03:33:27.093Z,1013.41
2017-04-01T03:34:49.263Z,1013.46
2017-04-01T03:36:11.810Z,1013.45
2017-04-01T03:37:33.703Z,1013.45
2017-04-01T03:38:55.200Z,1013.43
2017-04-01T03:40:17.585Z,1013.46
2017-04-01T03:41:39.417Z,1013.48
2017-04-01T03:43:01.546Z,1013.45
2017-04-01T03:44:23.994Z,1013.46
2017-04-01T03:45:46.705Z,1013.44
2017-04-01T03:47:08.843Z,1013.42
2017-04-01T03:48:30.995Z,1013.42
2017-04-01T03:49:52.494Z,1013.41
2017-04-01T03:51:14.715Z,1013.4
2017-04-01T03:52:36.870Z,1013.44
2017-04-01T03:53:58.051Z,1013.41
2017-04-01T03:55:20.166Z,1013.43
2017-04-01T03:56:42.679Z,1013.44
2017-04-01T03:58:04.820Z,1013.4
2017-04-01T03:59:26.024Z,1013.4
2017-04-01T04:00:48.512Z,1013.39
2017-04-01T04:02:11.246Z,1013.4
2017-04-01T04:03:33.521Z,1013.41
2017-04-01T04:04:55.990Z,1013.42
2017-04-01T04:06:17.811Z,1013.42
2017-04-01T04:07:40.244Z,1013.4
2017-04-01T04:09:01.743Z,1013.41
2017-04-01T04:10:23.551Z,1013.41
2017-04-01T04:11:45.115Z,1013.38
2017-04-01T04:13:07.492Z,1013.38
2017-04-01T04:14:29.324Z,1013.38
2017-04-01T04:15:51.264Z,1013.39
2017-04-01T04:17:13.096Z,1013.35
2017-04-01T04:18:35.311Z,1013.34
2017-04-01T04:19:57.454Z,1013.31
2017-04-01T04:21:20.033Z,1013.36
2017-04-01T04:22:41.994Z,1013.35
2017-04-01T04:24:04.813Z,1013.38
2017-04-01T04:25:26.734Z,1013.38
2017-04-01T04:26:47.616Z,1013.35
2017-04-01T04:28:09.768Z,1013.37
2017-04-01T04:29:31.846Z,1013.37
2017-04-01T04:30:54.003Z,1013.34
2017-04-01T04:32:16.167Z,1013.34
2017-04-01T04:33:38.314Z,1013.38
2017-04-01T04:35:00.705Z,1013.4
2017-04-01T04:36:22.203Z,1013.41
2017-04-01T04:37:43.710Z,1013.47
2017-04-01T04:39:05.214Z,1013.41
2017-04-01T04:40:27.357Z,1013.46
2017-04-01T04:41:49.594Z,1013.43
2017-04-01T04:43:11.856Z,1013.44
2017-04-01T04:44:33.973Z,1013.42
2017-04-01T04:45:56.696Z,1013.43
2017-04-01T04:47:18.207Z,1013.44
2017-04-01T04:48:40.671Z,1013.42
2017-04-01T04:50:02.884Z,1013.46
2017-04-01T04:51:24.843Z,1013.45
2017-04-01T04:52:47.056Z,1013.43
2017-04-01T04:54:09.206Z,1013.49
2017-04-01T04:55:31.036Z,1013.47
2017-04-01T04:56:53.126Z,1013.48
2017-04-01T04:58:15.610Z,1013.51
2017-04-01T04:59:37.917Z,1013.47
2017-04-01T05:01:00.372Z,1013.44
2017-04-01T05:02:21.914Z,1013.45
2017-04-01T05:03:43.755Z,1013.5
2017-04-01T05:05:05.936Z,1013.46
2017-04-01T05:06:28.148Z,1013.49
2017-04-01T05:07:50.292Z,1013.51
2017-04-01T05:09:12.435Z,1013.5
2017-04-01T05:10:34.964Z,1013.5
2017-04-01T05:11:56.294Z,1013.6
2017-04-01T05:13:17.924Z,1013.52
2017-04-01T05:14:40.073Z,1013.51
2017-04-01T05:16:02.678Z,1013.53
2017-04-01T05:17:25.115Z,1013.49
2017-04-01T05:18:48.284Z,1013.53
2017-04-01T05:20:10.445Z,1013.52
2017-04-01T05:21:32.926Z,1013.52
2017-04-01T05:22:54.566Z,1013.49
2017-04-01T05:24:16.367Z,1013.51
2017-04-01T05:25:38.497Z,1013.54
2017-04-01T05:27:00.315Z,1013.55
2017-04-01T05:28:22.249Z,1013.6
2017-04-01T05:29:44.166Z,1013.61
2017-04-01T05:31:06.354Z,1013.55
2017-04-01T05:32:28.166Z,1013.6
2017-04-01T05:33:50.077Z,1013.59
2017-04-01T05:35:11.940Z,1013.63
2017-04-01T05:36:34.206Z,1013.62
2017-04-01T05:37:55.734Z,1013.63
2017-04-01T05:39:17.384Z,1013.66
2017-04-01T05:40:39.946Z,1013.64
2017-04-01T05:42:01.805Z,1013.63
2017-04-01T05:43:23.355Z,1013.64
2017-04-01T05:44:45.548Z,1013.62
2017-04-01T05:46:08.226Z,1013.6
2017-04-01T05:47:30.350Z,1013.63
2017-04-01T05:48:52.160Z,1013.6
2017-04-01T05:50:14.329Z,1013.55
2017-04-01T05:51:37.224Z,1013.57
2017-04-01T05:52:59.356Z,1013.57
2017-04-01T05:54:21.167Z,1013.57
2017-04-01T05:55:42.987Z,1013.54
2017-04-01T05:57:05.114Z,1013.56
2017-04-01T05:58:26.637Z,1013.55
2017-04-01T05:59:48.467Z,1013.6
2017-04-01T06:01:11.106Z,1013.57
2017-04-01T06:02:33.425Z,1013.61
2017-04-01T06:03:55.891Z,1013.65
2017-04-01T06:05:17.716Z,1013.62
2017-04-01T06:06:39.690Z,1013.63
2017-04-01T06:08:01.824Z,1013.63
2017-04-01T06:09:23.705Z,1013.64
2017-04-01T06:10:45.833Z,1013.67
2017-04-01T06:12:07.949Z,1013.66
2017-04-01T06:13:29.437Z,1013.65
2017-04-01T06:14:51.349Z,1013.72
2017-04-01T06:16:13.801Z,1013.72
2017-04-01T06:17:35.329Z,1013.72
2017-04-01T06:18:58.149Z,1013.78
2017-04-01T06:20:19.979Z,1013.81
2017-04-01T06:21:41.858Z,1013.78
2017-04-01T06:23:04.106Z,1013.77
2017-04-01T06:24:26.180Z,1013.81
2017-04-01T06:25:47.716Z,1013.83
2017-04-01T06:27:10.024Z,1013.85
2017-04-01T06:28:31.370Z,1013.89
2017-04-01T06:29:52.866Z,1013.84
2017-04-01T06:31:14.749Z,1013.87
2017-04-01T06:32:36.254Z,1013.84
2017-04-01T06:33:58.058Z,1013.88
2017-04-01T06:35:20.138Z,1013.86
2017-04-01T06:36:42.630Z,1013.83
2017-04-01T06:38:05.075Z,1013.77
2017-04-01T06:39:27.215Z,1013.78
2017-04-01T06:40:49.283Z,1013.8
2017-04-01T06:42:11.749Z,1013.84
2017-04-01T06:43:33.590Z,1013.85
2017-04-01T06:44:55.417Z,1013.87
2017-04-01T06:46:17.808Z,1013.91
2017-04-01T06:47:39.989Z,1013.88
2017-04-01T06:49:01.289Z,1013.91
2017-04-01T06:50:23.145Z,1013.89
2017-04-01T06:51:45.240Z,1013.91
2017-04-01T06:53:07.693Z,1013.92
2017-04-01T06:54:29.866Z,1013.92
2017-04-01T06:55:52.004Z,1013.98
2017-04-01T06:57:14.560Z,1013.92
2017-04-01T06:58:35.788Z,1013.93
2017-04-01T06:59:58.337Z,1013.94
2017-04-01T07:01:20.168Z,1013.92
2017-04-01T07:02:42.888Z,1013.97
2017-04-01T07:04:05.173Z,1013.93
2017-04-01T07:05:27.767Z,1013.91
2017-04-01T07:06:50.246Z,1013.94
2017-04-01T07:08:12.793Z,1013.96
2017-04-01T07:09:34.966Z,1013.94
2017-04-01T07:10:57.155Z,1013.98
2017-04-01T07:12:19.682Z,1013.98
2017-04-01T07:13:42.537Z,1014.01
2017-04-01T07:15:04.988Z,1013.99
2017-04-01T07:16:27.520Z,1014.07
2017-04-01T07:17:49.022Z,1014.04
2017-04-01T07:19:11.849Z,1014.01
2017-04-01T07:20:33.987Z,1014.01
2017-04-01T07:21:56.206Z,1014.01
2017-04-01T07:23:18.038Z,1014.04
2017-04-01T07:24:40.438Z,1014.03
2017-04-01T07:26:02.887Z,1014.01
2017-04-01T07:27:24.100Z,1014.05
2017-04-01T07:28:46.347Z,1014.04
2017-04-01T07:30:08.173Z,1014.07
2017-04-01T07:31:29.848Z,1014.05
2017-04-01T07:32:51.750Z,1014.03
2017-04-01T07:34:13.887Z,1014.08
2017-04-01T07:35:35.727Z,1014.07
2017-04-01T07:36:58.217Z,1014.02
2017-04-01T07:38:20.067Z,1014.09
2017-04-01T07:39:41.947Z,1014.09
2017-04-01T07:41:04.157Z,1014.08
2017-04-01T07:42:26.066Z,1014.08
2017-04-01T07:43:48.558Z,1014.08
2017-04-01T07:45:10.065Z,1014.11
2017-04-01T07:46:32.675Z,1014.1
2017-04-01T07:47:54.328Z,1014.09
2017-04-01T07:49:16.166Z,1014.07
2017-04-01T07:50:38.306Z,1014.09
2017-04-01T07:52:00.766Z,1014.1
2017-04-01T07:53:22.294Z,1014.08
2017-04-01T07:54:44.128Z,1014.09
2017-04-01T07:56:05.989Z,1014.1
2017-04-01T07:57:28.438Z,1014.11
2017-04-01T07:58:50.320Z,1014.1
2017-04-01T08:00:12.536Z,1014.09
2017-04-01T08:01:35.024Z,1014.1
2017-04-01T08:02:58.063Z,1014.11
2017-04-01T08:04:20.271Z,1014.13
2017-04-01T08:05:42.346Z,1014.14
2017-04-01T08:07:04.814Z,1014.15
2017-04-01T08:08:27.565Z,1014.16
2017-04-01T08:09:49.390Z,1014.16
2017-04-01T08:11:11.558Z,1014.14
2017-04-01T08:12:34.022Z,1014.14
2017-04-01T08:13:55.876Z,1014.12
2017-04-01T08:15:18.356Z,1014.12
2017-04-01T08:16:39.961Z,1014.17
2017-04-01T08:18:01.900Z,1014.19
2017-04-01T08:19:24.371Z,1014.15
2017-04-01T08:20:46.855Z,1014.15
2017-04-01T08:22:08.752Z,1014.14
2017-04-01T08:23:30.700Z,1014.12
2017-04-01T08:24:53.095Z,1014.13
2017-04-01T08:26:15.571Z,1014.11
2017-04-01T08:27:37.705Z,1014.14
2017-04-01T08:28:59.217Z,1014.12
2017-04-01T08:30:21.003Z,1014.17
2017-04-01T08:31:42.584Z,1014.13
2017-04-01T08:33:04.717Z,1014.13
2017-04-01T08:34:26.533Z,1014.17
2017-04-01T08:35:48.662Z,1014.13
2017-04-01T08:37:11.147Z,1014.16
2017-04-01T08:38:33.297Z,1014.13
2017-04-01T08:40:27.805Z,1014.14
2017-04-01T08:41:50.746Z,1014.14
2017-04-01T08:43:12.274Z,1014.16
2017-04-01T08:44:34.737Z,1014.16
2017-04-01T08:45:56.913Z,1014.22
2017-04-01T08:47:18.527Z,1014.16
2017-04-01T08:48:40.371Z,1014.17
2017-04-01T08:50:34.824Z,1014.18
2017-04-01T08:51:57.259Z,1014.13
2017-04-01T08:53:19.237Z,1014.11
2017-04-01T08:54:41.084Z,1014.08
2017-04-01T08:56:03.469Z,1014.04
2017-04-01T08:57:25.705Z,1014.05
2017-04-01T08:58:47.921Z,1014.05
2017-04-01T09:00:10.064Z,1014
2017-04-01T09:01:32.536Z,1013.99
2017-04-01T09:02:54.388Z,1014.02
2017-04-01T09:04:16.606Z,1014.02
2017-04-01T09:05:37.819Z,1014.01
2017-04-01T09:07:00.655Z,1013.96
2017-04-01T09:08:22.162Z,1013.97
2017-04-01T09:09:44.026Z,1014.01
2017-04-01T09:11:06.218Z,1013.97
2017-04-01T09:12:28.365Z,1013.99
2017-04-01T09:13:49.886Z,1013.99
2017-04-01T09:15:11.747Z,1013.99
2017-04-01T09:16:33.949Z,1014
2017-04-01T09:17:56.404Z,1013.97
2017-04-01T09:19:18.616Z,1013.98
2017-04-01T09:20:40.789Z,1013.98
2017-04-01T09:22:02.977Z,1013.95
2017-04-01T09:23:25.078Z,1013.96
2017-04-01T09:24:47.233Z,1013.98
2017-04-01T09:26:09.148Z,1013.98
2017-04-01T09:27:30.996Z,1014.02
2017-04-01T09:28:53.569Z,1014.02
2017-04-01T09:30:15.416Z,1014.03
2017-04-01T09:31:37.273Z,1013.99
2017-04-01T09:32:58.828Z,1014
2017-04-01T09:34:20.982Z,1014
2017-04-01T09:35:43.186Z,1014.02
2017-04-01T09:37:05.355Z,1013.97
2017-04-01T09:38:26.880Z,1013.97
2017-04-01T09:39:49.010Z,1013.91
2017-04-01T09:41:10.849Z,1013.92
2017-04-01T09:42:33.093Z,1013.88
2017-04-01T09:43:54.715Z,1013.92
2017-04-01T09:45:17.195Z,1013.88
2017-04-01T09:46:39.124Z,1013.91
2017-04-01T09:48:01.427Z,1013.91
2017-04-01T09:49:23.249Z,1013.88
2017-04-01T09:50:46.025Z,1013.88
2017-04-01T09:52:08.186Z,1013.86
2017-04-01T09:53:29.692Z,1013.84
2017-04-01T09:54:51.591Z,1013.85
2017-04-01T09:56:13.242Z,1013.82
2017-04-01T09:57:35.081Z,1013.82
2017-04-01T09:58:57.257Z,1013.79
2017-04-01T10:00:19.108Z,1013.84
2017-04-01T10:01:41.929Z,1013.81
2017-04-01T10:03:03.446Z,1013.83
2017-04-01T10:04:25.614Z,1013.8
2017-04-01T10:05:47.802Z,1013.79
2017-04-01T10:07:10.301Z,1013.75
2017-04-01T10:08:31.932Z,1013.8
2017-04-01T10:09:53.457Z,1013.79
2017-04-01T10:11:15.930Z,1013.85
2017-04-01T10:12:38.368Z,1013.86
2017-04-01T10:14:00.524Z,1013.85
2017-04-01T10:15:22.344Z,1013.87
2017-04-01T10:16:44.499Z,1013.89
2017-04-01T10:18:06.816Z,1013.87
2017-04-01T10:19:28.965Z,1013.89
2017-04-01T10:20:50.581Z,1013.91
2017-04-01T10:22:13.105Z,1013.88
2017-04-01T10:23:34.987Z,1013.85
2017-04-01T10:24:57.436Z,1013.82
2017-04-01T10:26:19.597Z,1013.8
2017-04-01T10:27:42.069Z,1013.82
2017-04-01T10:29:04.544Z,1013.79
2017-04-01T10:30:26.714Z,1013.76
2017-04-01T10:31:48.225Z,1013.83
2017-04-01T10:33:09.569Z,1013.83
2017-04-01T10:34:32.097Z,1013.81
2017-04-01T10:35:53.909Z,1013.89
2017-04-01T10:37:16.044Z,1013.82
2017-04-01T10:38:38.234Z,1013.84
2017-04-01T10:40:00.682Z,1013.86
2017-04-01T10:41:22.923Z,1013.79
2017-04-01T10:42:45.416Z,1013.76
2017-04-01T10:44:07.556Z,1013.76
2017-04-01T10:45:29.070Z,1013.76
2017-04-01T10:46:50.606Z,1013.7
2017-04-01T10:48:12.424Z,1013.63
2017-04-01T10:49:34.585Z,1013.62
2017-04-01T10:50:57.067Z,1013.66
2017-04-01T10:52:18.897Z,1013.6
2017-04-01T10:53:40.745Z,1013.62
2017-04-01T10:55:02.917Z,1013.63
2017-04-01T10:56:25.626Z,1013.57
2017-04-01T10:57:47.879Z,1013.51
2017-04-01T10:59:10.085Z,1013.47
2017-04-01T11:00:32.239Z,1013.4
2017-04-01T11:01:54.851Z,1013.42
2017-04-01T11:03:17.348Z,1013.38
2017-04-01T11:04:39.616Z,1013.39
2017-04-01T11:06:01.474Z,1013.45
2017-04-01T11:07:23.576Z,1013.44
2017-04-01T11:08:46.134Z,1013.48
2017-04-01T11:10:08.004Z,1013.43
2017-04-01T11:11:29.937Z,1013.41
2017-04-01T11:12:52.026Z,1013.38
2017-04-01T11:14:14.496Z,1013.42
2017-04-01T11:15:36.348Z,1013.43
2017-04-01T11:16:58.540Z,1013.46
2017-04-01T11:18:20.327Z,1013.5
2017-04-01T11:19:42.254Z,1013.47
2017-04-01T11:21:04.806Z,1013.45
2017-04-01T11:22:26.363Z,1013.4
2017-04-01T11:23:48.499Z,1013.34
2017-04-01T11:25:10.653Z,1013.31
2017-04-01T11:26:32.817Z,1013.33
2017-04-01T11:27:54.662Z,1013.33
2017-04-01T11:29:17.415Z,1013.37
2017-04-01T11:30:39.281Z,1013.41
2017-04-01T11:32:01.496Z,1013.39
2017-04-01T11:33:23.648Z,1013.38
2017-04-01T11:34:46.076Z,1013.41
2017-04-01T11:36:07.902Z,1013.38
2017-04-01T11:37:30.074Z,1013.45
2017-04-01T11:38:51.986Z,1013.39
2017-04-01T11:40:14.179Z,1013.38
2017-04-01T11:41:36.651Z,1013.38
2017-04-01T11:42:58.225Z,1013.34
2017-04-01T11:44:20.384Z,1013.28
2017-04-01T11:45:43.197Z,1013.28
2017-04-01T11:47:05.398Z,1013.33
2017-04-01T11:48:27.551Z,1013.33
2017-04-01T11:49:49.437Z,1013.3
2017-04-01T11:51:11.945Z,1013.3
2017-04-01T11:52:33.807Z,1013.25
2017-04-01T11:53:55.361Z,1013.27
2017-04-01T11:55:17.866Z,1013.26
2017-04-01T11:56:40.376Z,1013.28
2017-04-01T11:58:34.614Z,1013.3
2017-04-01T11:59:57.293Z,1013.27
2017-04-01T12:01:19.849Z,1013.29
2017-04-01T12:02:42.074Z,1013.31
2017-04-01T12:04:03.607Z,1013.27
2017-04-01T12:05:26.083Z,1013.23
2017-04-01T12:06:48.667Z,1013.27
2017-04-01T12:08:10.867Z,1013.28
2017-04-01T12:09:33.188Z,1013.27
2017-04-01T12:10:55.677Z,1013.33
2017-04-01T12:12:18.130Z,1013.3
2017-04-01T12:13:39.962Z,1013.37
2017-04-01T12:15:02.539Z,1013.37
2017-04-01T12:16:24.790Z,1013.36
2017-04-01T12:17:47.615Z,1013.34
2017-04-01T12:19:09.878Z,1013.33
2017-04-01T12:20:32.484Z,1013.34
2017-04-01T12:21:55.008Z,1013.32
2017-04-01T12:23:17.356Z,1013.32
2017-04-01T12:24:39.563Z,1013.26
2017-04-01T12:26:01.399Z,1013.27
2017-04-01T12:27:23.237Z,1013.27
2017-04-01T12:28:45.697Z,1013.26
2017-04-01T12:30:07.548Z,1013.24
2017-04-01T12:31:30.033Z,1013.2
2017-04-01T12:32:51.637Z,1013.19
2017-04-01T12:34:14.167Z,1013.14
2017-04-01T12:35:36.566Z,1013.18
2017-04-01T12:36:59.062Z,1013.16
2017-04-01T12:38:21.657Z,1013.16
2017-04-01T12:39:43.848Z,1013.08
2017-04-01T12:41:06.026Z,1013.09
2017-04-01T12:42:27.911Z,1013.14
2017-04-01T12:43:49.766Z,1013.05
2017-04-01T12:45:13.810Z,1013.01
2017-04-01T12:46:35.457Z,1013.02
2017-04-01T12:47:57.375Z,1013
2017-04-01T12:49:19.556Z,1012.98
2017-04-01T12:50:42.392Z,1012.96
2017-04-01T12:52:03.955Z,1012.94
2017-04-01T12:53:26.486Z,1012.97
2017-04-01T12:54:48.987Z,1012.97
2017-04-01T12:56:11.859Z,1012.99
2017-04-01T12:57:34.478Z,1013
2017-04-01T12:58:56.655Z,1013
2017-04-01T13:00:18.486Z,1013.02
2017-04-01T13:01:40.967Z,1013.03
2017-04-01T13:03:02.510Z,1012.98
2017-04-01T13:04:24.413Z,1012.95
2017-04-01T13:05:46.265Z,1012.97
2017-04-01T13:07:08.123Z,1012.97
2017-04-01T13:08:30.364Z,1012.92
2017-04-01T13:09:52.217Z,1012.98
2017-04-01T13:11:13.756Z,1012.95
2017-04-01T13:12:35.950Z,1012.95
2017-04-01T13:13:58.127Z,1012.95
2017-04-01T13:15:20.280Z,1012.93
2017-04-01T13:16:42.775Z,1012.99
2017-04-01T13:18:05.002Z,1013.03
2017-04-01T13:19:26.846Z,1013.04
2017-04-01T13:20:49.054Z,1013.02
2017-04-01T13:22:11.351Z,1013.02
2017-04-01T13:23:34.633Z,1012.98
2017-04-01T13:24:57.182Z,1012.94
2017-04-01T13:26:19.514Z,1012.91
2017-04-01T13:27:41.640Z,1012.88
2017-04-01T13:29:04.276Z,1012.87
2017-04-01T13:30:26.486Z,1012.86
2017-04-01T13:31:48.655Z,1012.85
2017-04-01T13:33:11.743Z,1012.78
2017-04-01T13:34:34.937Z,1012.8
2017-04-01T13:35:56.536Z,1012.83
2017-04-01T13:37:18.850Z,1012.83
2017-04-01T13:38:41.004Z,1012.82
2017-04-01T13:40:04.007Z,1012.84
2017-04-01T13:41:26.588Z,1012.79
2017-04-01T13:42:48.938Z,1012.75
2017-04-01T13:44:11.123Z,1012.76
2017-04-01T13:45:33.919Z,1012.7
2017-04-01T13:46:55.845Z,1012.62
2017-04-01T13:48:18.436Z,1012.65
2017-04-01T13:49:40.294Z,1012.67
2017-04-01T13:51:02.647Z,1012.63
2017-04-01T13:52:24.818Z,1012.63
2017-04-01T13:53:47.721Z,1012.58
2017-04-01T13:55:09.623Z,1012.57
2017-04-01T13:56:32.090Z,1012.58
2017-04-01T13:57:53.606Z,1012.54
2017-04-01T13:59:15.747Z,1012.58
2017-04-01T14:00:37.907Z,1012.56
2017-04-01T14:01:59.830Z,1012.5
2017-04-01T14:03:22.016Z,1012.5
2017-04-01T14:04:44.209Z,1012.5
2017-04-01T14:06:06.397Z,1012.49
2017-04-01T14:07:29.181Z,1012.48
2017-04-01T14:08:51.082Z,1012.52
2017-04-01T14:10:13.321Z,1012.51
2017-04-01T14:11:35.632Z,1012.52
2017-04-01T14:12:58.191Z,1012.47
2017-04-01T14:14:20.656Z,1012.46
2017-04-01T14:15:42.844Z,1012.43
2017-04-01T14:17:04.701Z,1012.39
2017-04-01T14:18:27.541Z,1012.38
2017-04-01T14:19:49.712Z,1012.39
2017-04-01T14:21:11.938Z,1012.34
2017-04-01T14:22:33.814Z,1012.28
2017-04-01T14:23:57.056Z,1012.25
2017-04-01T14:25:19.625Z,1012.24
2017-04-01T14:26:41.785Z,1012.22
2017-04-01T14:28:04.280Z,1012.27
2017-04-01T14:29:26.186Z,1012.23
2017-04-01T14:30:48.458Z,1012.21
2017-04-01T14:32:10.326Z,1012.23
2017-04-01T14:33:32.262Z,1012.26
2017-04-01T14:34:55.285Z,1012.24
2017-04-01T14:36:17.199Z,1012.25
2017-04-01T14:37:40.039Z,1012.23
2017-04-01T14:39:02.063Z,1012.26
2017-04-01T14:40:23.994Z,1012.3
2017-04-01T14:41:45.576Z,1012.31
2017-04-01T14:43:07.826Z,1012.31
2017-04-01T14:44:30.312Z,1012.28
2017-04-01T14:45:52.817Z,1012.25
2017-04-01T14:47:14.652Z,1012.24
2017-04-01T14:48:36.822Z,1012.23
2017-04-01T14:49:59.350Z,1012.22
2017-04-01T14:51:21.840Z,1012.21
2017-04-01T14:52:43.713Z,1012.23
2017-04-01T14:54:05.700Z,1012.22
2017-04-01T14:55:27.872Z,1012.25
2017-04-01T14:56:50.988Z,1012.22
2017-04-01T14:58:13.193Z,1012.17
2017-04-01T14:59:35.044Z,1012.14
2017-04-01T15:00:56.907Z,1012.09
2017-04-01T15:02:19.426Z,1012.05
2017-04-01T15:03:41.589Z,1012.03
2017-04-01T15:05:03.495Z,1012.03
2017-04-01T15:06:25.675Z,1012.02
2017-04-01T15:07:48.322Z,1012
2017-04-01T15:09:09.523Z,1012.02
2017-04-01T15:10:31.719Z,1011.97
2017-04-01T15:11:53.274Z,1011.96
2017-04-01T15:13:15.382Z,1011.91
2017-04-01T15:14:37.861Z,1011.88
2017-04-01T15:16:00.150Z,1011.87
2017-04-01T15:17:22.343Z,1011.82
2017-04-01T15:18:46.053Z,1011.8
2017-04-01T15:20:08.220Z,1011.8
2017-04-01T15:21:30.374Z,1011.75
2017-04-01T15:22:52.705Z,1011.73
2017-04-01T15:24:15.255Z,1011.72
2017-04-01T15:25:37.718Z,1011.73
2017-04-01T15:26:59.672Z,1011.74
2017-04-01T15:28:22.272Z,1011.71
2017-04-01T15:29:44.912Z,1011.71
2017-04-01T15:31:06.807Z,1011.72
2017-04-01T15:32:29.304Z,1011.75
2017-04-01T15:33:51.603Z,1011.83
2017-04-01T15:35:13.835Z,1011.84
2017-04-01T15:36:36.004Z,1011.85
2017-04-01T15:37:58.146Z,1011.84
2017-04-01T15:39:20.439Z,1011.82
2017-04-01T15:40:43.321Z,1011.87
2017-04-01T15:42:05.263Z,1011.87
2017-04-01T15:43:27.763Z,1011.84
2017-04-01T15:44:49.663Z,1011.89
2017-04-01T15:46:11.867Z,1011.88
2017-04-01T15:47:34.323Z,1011.9
2017-04-01T15:48:55.669Z,1011.9
2017-04-01T15:50:17.516Z,1011.91
2017-04-01T15:51:40.012Z,1011.92
2017-04-01T15:53:02.589Z,1011.96
2017-04-01T15:54:25.123Z,1011.96
2017-04-01T15:55:46.960Z,1011.95
2017-04-01T15:57:09.262Z,1011.95
2017-04-01T15:58:31.769Z,1011.91
2017-04-01T15:59:54.485Z,1011.91
2017-04-01T16:01:16.513Z,1011.87
2017-04-01T16:02:39.030Z,1011.87
2017-04-01T16:04:00.893Z,1011.88
2017-04-01T16:05:23.404Z,1011.86
2017-04-01T16:06:45.655Z,1011.86
2017-04-01T16:08:08.506Z,1011.83
2017-04-01T16:09:30.897Z,1011.83
2017-04-01T16:10:53.391Z,1011.87
2017-04-01T16:12:15.589Z,1011.86
2017-04-01T16:13:39.120Z,1011.84
2017-04-01T16:15:01.274Z,1011.87
2017-04-01T16:16:23.168Z,1011.84
2017-04-01T16:17:45.848Z,1011.8
2017-04-01T16:19:08.977Z,1011.81
2017-04-01T16:20:31.041Z,1011.8
2017-04-01T16:21:53.208Z,1011.79
2017-04-01T16:23:15.373Z,1011.83
2017-04-01T16:24:38.007Z,1011.81
2017-04-01T16:26:00.502Z,1011.82
2017-04-01T16:27:22.690Z,1011.79
2017-04-01T16:28:44.225Z,1011.81
2017-04-01T16:30:06.574Z,1011.8
2017-04-01T16:31:28.425Z,1011.79
2017-04-01T16:32:50.934Z,1011.8
2017-04-01T16:34:13.475Z,1011.81
2017-04-01T16:35:36.245Z,1011.79
2017-04-01T16:36:58.725Z,1011.78
2017-04-01T16:38:20.919Z,1011.8